Terminal Aerodrome Forecast
Issued by NWS Cleveland, OH

Home | Current Version | Previous Version | Graphics & Text | Print | Product List | Glossary Off
Versions: 1 2 3 4 5 6 7 8 9 10 11 12 13 14 15

000
FTUS41 KCLE 261900 AAA
TAFYNG
TAF AMD
KYNG 261925Z 2619/2718 36012KT P6SM SCT050
     FM270100 33005KT P6SM BKN050
     FM270900 30006KT P6SM VCSH SCT008 OVC018=

USA.gov is the U.S. government's official web portal to all federal, state and local government web resources and services.